Terminal Aerodrome Forecast
Issued by NWS

Home | Current Version | Previous Version | Text Only | Print | Product List | Glossary On
Versions: 1 2 3 4 5 6 7 8 9 10 11 12 13 14 15 16 17 18 19 20 21 22 23 24 25 26 27 28 29 30 31 32 33 34 35 36 37 38 39 40 41
998
FTUS45 KGJT 110107 AAA
TAFVEL
TAF AMD
KVEL 110107Z 1101/1124 30003KT 5SM HZ SCT250
     FM111000 28003KT 4SM HZ SCT250
     FM111800 10003KT 6SM HZ BKN200=

USA.gov is the U.S. government's official web portal to all federal, state and local government web resources and services.